sensor_id;sensor_type;location;lat;lon;timestamp;P1;durP1;ratioP1;P2;durP2;ratioP2
80133;SDS011;69443;51.442;10.564;2023-04-25T00:01:21;3.00;;;1.63;;
80133;SDS011;69443;51.442;10.564;2023-04-25T00:03:49;2.70;;;1.88;;
80133;SDS011;69443;51.442;10.564;2023-04-25T00:06:15;3.22;;;2.00;;
80133;SDS011;69443;51.442;10.564;2023-04-25T00:08:40;2.58;;;1.42;;
80133;SDS011;69443;51.442;10.564;2023-04-25T00:11:06;2.20;;;1.70;;
80133;SDS011;69443;51.442;10.564;2023-04-25T00:13:31;4.82;;;2.17;;
80133;SDS011;69443;51.442;10.564;2023-04-25T00:15:57;3.40;;;1.80;;
80133;SDS011;69443;51.442;10.564;2023-04-25T00:18:23;2.75;;;1.73;;
80133;SDS011;69443;51.442;10.564;2023-04-25T00:20:49;3.80;;;1.58;;
80133;SDS011;69443;51.442;10.564;2023-04-25T00:23:17;4.10;;;1.80;;
80133;SDS011;69443;51.442;10.564;2023-04-25T00:25:43;4.00;;;2.00;;
80133;SDS011;69443;51.442;10.564;2023-04-25T00:28:10;4.10;;;1.70;;
80133;SDS011;69443;51.442;10.564;2023-04-25T00:30:36;3.13;;;1.80;;
80133;SDS011;69443;51.442;10.564;2023-04-25T00:33:01;4.05;;;1.85;;
80133;SDS011;69443;51.442;10.564;2023-04-25T00:35:26;3.75;;;2.05;;
80133;SDS011;69443;51.442;10.564;2023-04-25T00:37:52;4.07;;;2.10;;
80133;SDS011;69443;51.442;10.564;2023-04-25T00:40:17;2.65;;;1.10;;
80133;SDS011;69443;51.442;10.564;2023-04-25T00:42:43;2.65;;;1.90;;
80133;SDS011;69443;51.442;10.564;2023-04-25T00:45:10;3.88;;;2.00;;
80133;SDS011;69443;51.442;10.564;2023-04-25T00:47:39;2.63;;;1.98;;
80133;SDS011;69443;51.442;10.564;2023-04-25T00:50:05;3.20;;;1.92;;
80133;SDS011;69443;51.442;10.564;2023-04-25T00:52:31;5.10;;;2.83;;
80133;SDS011;69443;51.442;10.564;2023-04-25T00:54:57;7.30;;;2.40;;
80133;SDS011;69443;51.442;10.564;2023-04-25T00:57:22;7.75;;;2.72;;
80133;SDS011;69443;51.442;10.564;2023-04-25T00:59:48;6.00;;;3.13;;
80133;SDS011;69443;51.442;10.564;2023-04-25T01:02:15;5.47;;;2.38;;
80133;SDS011;69443;51.442;10.564;2023-04-25T01:04:41;2.35;;;1.30;;
80133;SDS011;69443;51.442;10.564;2023-04-25T01:07:06;6.90;;;2.63;;
80133;SDS011;69443;51.442;10.564;2023-04-25T01:09:32;3.30;;;1.92;;
80133;SDS011;69443;51.442;10.564;2023-04-25T01:11:57;7.60;;;3.78;;
80133;SDS011;69443;51.442;10.564;2023-04-25T01:14:23;6.57;;;3.55;;
80133;SDS011;69443;51.442;10.564;2023-04-25T01:16:48;8.23;;;3.88;;
80133;SDS011;69443;51.442;10.564;2023-04-25T01:19:15;5.88;;;3.88;;
80133;SDS011;69443;51.442;10.564;2023-04-25T01:21:43;7.88;;;3.90;;
80133;SDS011;69443;51.442;10.564;2023-04-25T01:24:08;4.35;;;3.00;;
80133;SDS011;69443;51.442;10.564;2023-04-25T01:26:34;5.75;;;3.25;;
80133;SDS011;69443;51.442;10.564;2023-04-25T01:29:00;8.45;;;4.07;;
80133;SDS011;69443;51.442;10.564;2023-04-25T01:31:26;6.53;;;4.38;;
80133;SDS011;69443;51.442;10.564;2023-04-25T01:33:52;5.78;;;3.30;;
80133;SDS011;69443;51.442;10.564;2023-04-25T01:36:18;9.52;;;4.38;;
80133;SDS011;69443;51.442;10.564;2023-04-25T01:38:43;8.60;;;4.57;;
80133;SDS011;69443;51.442;10.564;2023-04-25T01:41:11;4.32;;;3.25;;
80133;SDS011;69443;51.442;10.564;2023-04-25T01:43:36;8.30;;;4.32;;
80133;SDS011;69443;51.442;10.564;2023-04-25T01:46:02;7.95;;;4.30;;
80133;SDS011;69443;51.442;10.564;2023-04-25T01:48:27;10.77;;;4.93;;
80133;SDS011;69443;51.442;10.564;2023-04-25T01:50:53;6.53;;;3.33;;
80133;SDS011;69443;51.442;10.564;2023-04-25T01:53:18;9.68;;;5.05;;
80133;SDS011;69443;51.442;10.564;2023-04-25T01:55:43;9.32;;;5.32;;
80133;SDS011;69443;51.442;10.564;2023-04-25T01:58:09;7.28;;;4.38;;
80133;SDS011;69443;51.442;10.564;2023-04-25T02:00:37;10.25;;;5.53;;
80133;SDS011;69443;51.442;10.564;2023-04-25T02:03:03;11.40;;;5.95;;
80133;SDS011;69443;51.442;10.564;2023-04-25T02:05:33;4.95;;;2.65;;
80133;SDS011;69443;51.442;10.564;2023-04-25T02:08:00;5.68;;;3.80;;
80133;SDS011;69443;51.442;10.564;2023-04-25T02:10:26;11.50;;;5.65;;
80133;SDS011;69443;51.442;10.564;2023-04-25T02:12:51;7.53;;;4.95;;
80133;SDS011;69443;51.442;10.564;2023-04-25T02:15:16;14.73;;;6.57;;
80133;SDS011;69443;51.442;10.564;2023-04-25T02:17:42;10.00;;;4.45;;
80133;SDS011;69443;51.442;10.564;2023-04-25T02:20:07;6.55;;;3.65;;
80133;SDS011;69443;51.442;10.564;2023-04-25T02:22:33;10.30;;;5.45;;
80133;SDS011;69443;51.442;10.564;2023-04-25T02:25:00;9.95;;;4.82;;
80133;SDS011;69443;51.442;10.564;2023-04-25T02:27:25;8.48;;;4.82;;
80133;SDS011;69443;51.442;10.564;2023-04-25T02:29:51;7.10;;;3.53;;
80133;SDS011;69443;51.442;10.564;2023-04-25T02:32:32;9.70;;;4.70;;
80133;SDS011;69443;51.442;10.564;2023-04-25T02:34:59;7.55;;;4.20;;
80133;SDS011;69443;51.442;10.564;2023-04-25T02:37:28;10.45;;;4.88;;
80133;SDS011;69443;51.442;10.564;2023-04-25T02:39:58;7.90;;;4.20;;
80133;SDS011;69443;51.442;10.564;2023-04-25T02:42:23;13.20;;;4.97;;
80133;SDS011;69443;51.442;10.564;2023-04-25T02:44:49;6.57;;;3.97;;
80133;SDS011;69443;51.442;10.564;2023-04-25T02:47:14;7.80;;;4.68;;
80133;SDS011;69443;51.442;10.564;2023-04-25T02:49:39;6.30;;;4.10;;
80133;SDS011;69443;51.442;10.564;2023-04-25T02:52:05;8.50;;;3.97;;
80133;SDS011;69443;51.442;10.564;2023-04-25T02:54:30;4.97;;;2.88;;
80133;SDS011;69443;51.442;10.564;2023-04-25T02:56:56;9.65;;;4.40;;
80133;SDS011;69443;51.442;10.564;2023-04-25T02:59:22;7.93;;;3.97;;
80133;SDS011;69443;51.442;10.564;2023-04-25T03:01:47;10.85;;;5.15;;
80133;SDS011;69443;51.442;10.564;2023-04-25T03:04:12;11.18;;;4.05;;
80133;SDS011;69443;51.442;10.564;2023-04-25T03:06:38;9.13;;;4.32;;
80133;SDS011;69443;51.442;10.564;2023-04-25T03:09:03;5.20;;;2.92;;
80133;SDS011;69443;51.442;10.564;2023-04-25T03:11:29;7.78;;;4.10;;
80133;SDS011;69443;51.442;10.564;2023-04-25T03:13:54;4.25;;;2.90;;
80133;SDS011;69443;51.442;10.564;2023-04-25T03:16:19;11.85;;;4.20;;
80133;SDS011;69443;51.442;10.564;2023-04-25T03:18:45;4.25;;;2.45;;
80133;SDS011;69443;51.442;10.564;2023-04-25T03:21:10;5.68;;;2.60;;
80133;SDS011;69443;51.442;10.564;2023-04-25T03:23:36;8.88;;;4.32;;
80133;SDS011;69443;51.442;10.564;2023-04-25T03:26:01;9.90;;;4.40;;
80133;SDS011;69443;51.442;10.564;2023-04-25T03:28:27;6.97;;;3.10;;
80133;SDS011;69443;51.442;10.564;2023-04-25T03:30:53;7.68;;;3.63;;
80133;SDS011;69443;51.442;10.564;2023-04-25T03:33:19;10.00;;;3.88;;
80133;SDS011;69443;51.442;10.564;2023-04-25T03:35:44;8.98;;;3.83;;
80133;SDS011;69443;51.442;10.564;2023-04-25T03:38:10;7.43;;;3.95;;
80133;SDS011;69443;51.442;10.564;2023-04-25T03:40:35;8.13;;;3.72;;
80133;SDS011;69443;51.442;10.564;2023-04-25T03:43:00;13.23;;;4.00;;
80133;SDS011;69443;51.442;10.564;2023-04-25T03:45:26;9.43;;;3.85;;
80133;SDS011;69443;51.442;10.564;2023-04-25T03:47:51;8.18;;;3.58;;
80133;SDS011;69443;51.442;10.564;2023-04-25T03:50:16;8.02;;;4.07;;
80133;SDS011;69443;51.442;10.564;2023-04-25T03:52:42;6.85;;;3.72;;
80133;SDS011;69443;51.442;10.564;2023-04-25T03:55:08;8.90;;;3.88;;
80133;SDS011;69443;51.442;10.564;2023-04-25T03:57:34;7.50;;;3.75;;
80133;SDS011;69443;51.442;10.564;2023-04-25T03:59:59;13.27;;;4.32;;
80133;SDS011;69443;51.442;10.564;2023-04-25T04:02:25;9.57;;;4.18;;
80133;SDS011;69443;51.442;10.564;2023-04-25T04:04:50;3.58;;;2.60;;
80133;SDS011;69443;51.442;10.564;2023-04-25T04:07:15;7.75;;;3.78;;
80133;SDS011;69443;51.442;10.564;2023-04-25T04:09:41;7.95;;;3.72;;
80133;SDS011;69443;51.442;10.564;2023-04-25T04:12:06;7.10;;;3.50;;
80133;SDS011;69443;51.442;10.564;2023-04-25T04:14:31;2.95;;;2.17;;
80133;SDS011;69443;51.442;10.564;2023-04-25T04:16:57;9.63;;;3.90;;
80133;SDS011;69443;51.442;10.564;2023-04-25T04:19:22;6.00;;;3.55;;
80133;SDS011;69443;51.442;10.564;2023-04-25T04:21:47;6.47;;;3.97;;
80133;SDS011;69443;51.442;10.564;2023-04-25T04:24:13;8.00;;;3.88;;
80133;SDS011;69443;51.442;10.564;2023-04-25T04:26:39;9.20;;;4.00;;
80133;SDS011;69443;51.442;10.564;2023-04-25T04:29:05;7.97;;;3.97;;
80133;SDS011;69443;51.442;10.564;2023-04-25T04:31:32;5.60;;;3.90;;
80133;SDS011;69443;51.442;10.564;2023-04-25T04:33:57;8.88;;;3.92;;
80133;SDS011;69443;51.442;10.564;2023-04-25T04:36:23;3.13;;;2.35;;
80133;SDS011;69443;51.442;10.564;2023-04-25T04:38:51;9.27;;;4.15;;
80133;SDS011;69443;51.442;10.564;2023-04-25T04:41:17;6.45;;;4.03;;
80133;SDS011;69443;51.442;10.564;2023-04-25T04:43:44;6.55;;;3.95;;
80133;SDS011;69443;51.442;10.564;2023-04-25T04:46:09;7.97;;;3.70;;
80133;SDS011;69443;51.442;10.564;2023-04-25T04:48:35;9.48;;;4.60;;
80133;SDS011;69443;51.442;10.564;2023-04-25T04:51:00;7.03;;;3.58;;
80133;SDS011;69443;51.442;10.564;2023-04-25T04:53:26;11.43;;;4.38;;
80133;SDS011;69443;51.442;10.564;2023-04-25T04:55:52;12.02;;;4.55;;
80133;SDS011;69443;51.442;10.564;2023-04-25T04:58:17;9.65;;;4.20;;
80133;SDS011;69443;51.442;10.564;2023-04-25T05:00:43;7.07;;;3.90;;
80133;SDS011;69443;51.442;10.564;2023-04-25T05:03:08;7.90;;;4.30;;
80133;SDS011;69443;51.442;10.564;2023-04-25T05:05:34;11.38;;;4.60;;
80133;SDS011;69443;51.442;10.564;2023-04-25T05:07:59;5.93;;;3.80;;
80133;SDS011;69443;51.442;10.564;2023-04-25T05:10:25;5.82;;;2.95;;
80133;SDS011;69443;51.442;10.564;2023-04-25T05:12:50;7.35;;;3.63;;
80133;SDS011;69443;51.442;10.564;2023-04-25T05:15:16;6.03;;;4.00;;
80133;SDS011;69443;51.442;10.564;2023-04-25T05:17:41;4.07;;;2.60;;
80133;SDS011;69443;51.442;10.564;2023-04-25T05:20:07;9.95;;;4.38;;
80133;SDS011;69443;51.442;10.564;2023-04-25T05:22:34;4.32;;;3.08;;
80133;SDS011;69443;51.442;10.564;2023-04-25T05:24:59;11.10;;;5.38;;
80133;SDS011;69443;51.442;10.564;2023-04-25T05:27:25;3.17;;;2.03;;
80133;SDS011;69443;51.442;10.564;2023-04-25T05:29:51;5.35;;;3.25;;
80133;SDS011;69443;51.442;10.564;2023-04-25T05:32:17;6.75;;;4.30;;
80133;SDS011;69443;51.442;10.564;2023-04-25T05:34:43;8.52;;;4.97;;
80133;SDS011;69443;51.442;10.564;2023-04-25T05:37:08;3.80;;;2.92;;
80133;SDS011;69443;51.442;10.564;2023-04-25T05:39:33;8.55;;;4.22;;
80133;SDS011;69443;51.442;10.564;2023-04-25T05:41:59;7.68;;;4.57;;
80133;SDS011;69443;51.442;10.564;2023-04-25T05:44:24;6.93;;;4.30;;
80133;SDS011;69443;51.442;10.564;2023-04-25T05:46:50;7.15;;;4.28;;
80133;SDS011;69443;51.442;10.564;2023-04-25T05:49:15;5.05;;;3.20;;
80133;SDS011;69443;51.442;10.564;2023-04-25T05:51:40;5.60;;;3.55;;
80133;SDS011;69443;51.442;10.564;2023-04-25T05:54:06;2.72;;;2.40;;
80133;SDS011;69443;51.442;10.564;2023-04-25T05:56:31;5.95;;;3.42;;
80133;SDS011;69443;51.442;10.564;2023-04-25T05:58:57;6.57;;;4.40;;
80133;SDS011;69443;51.442;10.564;2023-04-25T06:01:22;7.45;;;4.15;;
80133;SDS011;69443;51.442;10.564;2023-04-25T06:03:48;6.60;;;4.00;;
80133;SDS011;69443;51.442;10.564;2023-04-25T06:06:13;7.15;;;3.30;;
80133;SDS011;69443;51.442;10.564;2023-04-25T06:08:39;8.40;;;4.30;;
80133;SDS011;69443;51.442;10.564;2023-04-25T06:11:05;5.38;;;3.45;;
80133;SDS011;69443;51.442;10.564;2023-04-25T06:13:31;3.63;;;2.85;;
80133;SDS011;69443;51.442;10.564;2023-04-25T06:15:56;5.15;;;3.25;;
80133;SDS011;69443;51.442;10.564;2023-04-25T06:18:22;5.63;;;2.50;;
80133;SDS011;69443;51.442;10.564;2023-04-25T06:20:47;4.78;;;2.67;;
80133;SDS011;69443;51.442;10.564;2023-04-25T06:23:12;4.47;;;2.90;;
80133;SDS011;69443;51.442;10.564;2023-04-25T06:25:38;4.18;;;2.58;;
80133;SDS011;69443;51.442;10.564;2023-04-25T06:28:03;2.92;;;2.47;;
80133;SDS011;69443;51.442;10.564;2023-04-25T06:30:28;3.38;;;2.10;;
80133;SDS011;69443;51.442;10.564;2023-04-25T06:32:54;4.10;;;2.80;;
80133;SDS011;69443;51.442;10.564;2023-04-25T06:35:20;4.50;;;2.47;;
80133;SDS011;69443;51.442;10.564;2023-04-25T06:37:45;4.32;;;2.00;;
80133;SDS011;69443;51.442;10.564;2023-04-25T06:40:11;5.45;;;2.55;;
80133;SDS011;69443;51.442;10.564;2023-04-25T06:42:36;3.47;;;2.08;;
80133;SDS011;69443;51.442;10.564;2023-04-25T06:45:02;4.63;;;2.30;;
80133;SDS011;69443;51.442;10.564;2023-04-25T06:47:28;3.13;;;2.03;;
80133;SDS011;69443;51.442;10.564;2023-04-25T06:49:54;4.10;;;2.13;;
80133;SDS011;69443;51.442;10.564;2023-04-25T06:52:20;7.38;;;2.85;;
80133;SDS011;69443;51.442;10.564;2023-04-25T06:54:45;3.85;;;1.92;;
80133;SDS011;69443;51.442;10.564;2023-04-25T06:57:10;2.53;;;1.30;;
80133;SDS011;69443;51.442;10.564;2023-04-25T06:59:36;5.35;;;1.83;;
80133;SDS011;69443;51.442;10.564;2023-04-25T07:02:01;6.50;;;2.17;;
80133;SDS011;69443;51.442;10.564;2023-04-25T07:04:27;4.53;;;1.17;;
80133;SDS011;69443;51.442;10.564;2023-04-25T07:06:52;6.05;;;1.70;;
80133;SDS011;69443;51.442;10.564;2023-04-25T07:09:18;4.15;;;1.83;;
80133;SDS011;69443;51.442;10.564;2023-04-25T07:11:43;6.88;;;2.25;;
80133;SDS011;69443;51.442;10.564;2023-04-25T07:14:09;3.10;;;1.42;;
80133;SDS011;69443;51.442;10.564;2023-04-25T07:16:34;6.88;;;2.08;;
80133;SDS011;69443;51.442;10.564;2023-04-25T07:18:59;7.30;;;2.17;;
80133;SDS011;69443;51.442;10.564;2023-04-25T07:21:25;5.72;;;1.55;;
80133;SDS011;69443;51.442;10.564;2023-04-25T07:23:51;9.60;;;2.40;;
80133;SDS011;69443;51.442;10.564;2023-04-25T07:26:16;6.95;;;2.25;;
80133;SDS011;69443;51.442;10.564;2023-04-25T07:28:42;3.00;;;1.50;;
80133;SDS011;69443;51.442;10.564;2023-04-25T07:31:08;6.63;;;1.83;;
80133;SDS011;69443;51.442;10.564;2023-04-25T07:33:33;4.25;;;2.00;;
80133;SDS011;69443;51.442;10.564;2023-04-25T07:35:59;2.60;;;1.23;;
80133;SDS011;69443;51.442;10.564;2023-04-25T07:38:25;3.75;;;1.77;;
80133;SDS011;69443;51.442;10.564;2023-04-25T07:40:50;6.05;;;2.15;;
80133;SDS011;69443;51.442;10.564;2023-04-25T07:43:16;5.10;;;2.42;;
80133;SDS011;69443;51.442;10.564;2023-04-25T07:45:45;6.43;;;2.53;;
80133;SDS011;69443;51.442;10.564;2023-04-25T07:48:11;6.35;;;2.40;;
80133;SDS011;69443;51.442;10.564;2023-04-25T07:50:37;6.22;;;1.65;;
80133;SDS011;69443;51.442;10.564;2023-04-25T07:53:03;9.40;;;2.40;;
80133;SDS011;69443;51.442;10.564;2023-04-25T07:55:28;8.00;;;2.50;;
80133;SDS011;69443;51.442;10.564;2023-04-25T07:57:54;7.57;;;1.92;;
80133;SDS011;69443;51.442;10.564;2023-04-25T08:00:19;5.35;;;1.95;;
80133;SDS011;69443;51.442;10.564;2023-04-25T08:02:45;6.57;;;2.25;;
80133;SDS011;69443;51.442;10.564;2023-04-25T08:05:10;3.20;;;1.65;;
80133;SDS011;69443;51.442;10.564;2023-04-25T08:07:39;2.65;;;1.65;;
80133;SDS011;69443;51.442;10.564;2023-04-25T08:10:05;5.68;;;2.15;;
80133;SDS011;69443;51.442;10.564;2023-04-25T08:12:31;2.45;;;1.48;;
80133;SDS011;69443;51.442;10.564;2023-04-25T08:14:57;10.90;;;2.00;;
80133;SDS011;69443;51.442;10.564;2023-04-25T08:17:22;4.45;;;2.03;;
80133;SDS011;69443;51.442;10.564;2023-04-25T08:19:48;5.05;;;1.63;;
80133;SDS011;69443;51.442;10.564;2023-04-25T08:22:14;3.10;;;1.50;;
80133;SDS011;69443;51.442;10.564;2023-04-25T08:24:39;6.85;;;2.15;;
80133;SDS011;69443;51.442;10.564;2023-04-25T08:27:05;5.97;;;2.13;;
80133;SDS011;69443;51.442;10.564;2023-04-25T08:29:32;5.70;;;1.98;;
80133;SDS011;69443;51.442;10.564;2023-04-25T08:31:58;5.85;;;1.92;;
80133;SDS011;69443;51.442;10.564;2023-04-25T08:34:23;6.03;;;1.80;;
80133;SDS011;69443;51.442;10.564;2023-04-25T08:36:48;5.22;;;1.58;;
80133;SDS011;69443;51.442;10.564;2023-04-25T08:39:14;5.07;;;1.77;;
80133;SDS011;69443;51.442;10.564;2023-04-25T08:41:40;5.00;;;2.05;;
80133;SDS011;69443;51.442;10.564;2023-04-25T08:44:06;5.43;;;1.90;;
80133;SDS011;69443;51.442;10.564;2023-04-25T08:46:34;6.43;;;1.70;;
80133;SDS011;69443;51.442;10.564;2023-04-25T08:49:02;8.27;;;2.38;;
80133;SDS011;69443;51.442;10.564;2023-04-25T08:51:27;6.47;;;1.50;;
80133;SDS011;69443;51.442;10.564;2023-04-25T08:54:31;4.85;;;1.90;;
80133;SDS011;69443;51.442;10.564;2023-04-25T08:56:53;7.55;;;1.90;;
80133;SDS011;69443;51.442;10.564;2023-04-25T08:59:19;7.20;;;2.10;;
80133;SDS011;69443;51.442;10.564;2023-04-25T09:01:45;3.03;;;1.40;;
80133;SDS011;69443;51.442;10.564;2023-04-25T09:04:11;6.70;;;2.20;;
80133;SDS011;69443;51.442;10.564;2023-04-25T09:06:37;5.80;;;2.08;;
80133;SDS011;69443;51.442;10.564;2023-04-25T09:09:06;5.07;;;1.75;;
80133;SDS011;69443;51.442;10.564;2023-04-25T09:11:33;12.90;;;2.70;;
80133;SDS011;69443;51.442;10.564;2023-04-25T09:14:10;5.93;;;2.03;;
80133;SDS011;69443;51.442;10.564;2023-04-25T09:16:40;5.80;;;2.00;;
80133;SDS011;69443;51.442;10.564;2023-04-25T09:19:22;7.40;;;2.10;;
80133;SDS011;69443;51.442;10.564;2023-04-25T09:21:49;4.82;;;1.63;;
80133;SDS011;69443;51.442;10.564;2023-04-25T09:24:15;7.82;;;1.67;;
80133;SDS011;69443;51.442;10.564;2023-04-25T09:26:40;3.42;;;1.52;;
80133;SDS011;69443;51.442;10.564;2023-04-25T09:29:06;6.97;;;2.20;;
80133;SDS011;69443;51.442;10.564;2023-04-25T09:31:32;7.15;;;2.33;;
80133;SDS011;69443;51.442;10.564;2023-04-25T09:33:59;5.63;;;2.00;;
80133;SDS011;69443;51.442;10.564;2023-04-25T09:36:26;9.57;;;2.20;;
80133;SDS011;69443;51.442;10.564;2023-04-25T09:38:52;6.32;;;1.88;;
80133;SDS011;69443;51.442;10.564;2023-04-25T09:41:22;5.25;;;1.60;;
80133;SDS011;69443;51.442;10.564;2023-04-25T09:43:48;5.85;;;1.77;;
80133;SDS011;69443;51.442;10.564;2023-04-25T09:46:14;7.00;;;1.50;;
80133;SDS011;69443;51.442;10.564;2023-04-25T09:48:40;9.18;;;2.33;;
80133;SDS011;69443;51.442;10.564;2023-04-25T09:51:13;3.30;;;1.25;;
80133;SDS011;69443;51.442;10.564;2023-04-25T09:53:39;5.43;;;1.88;;
80133;SDS011;69443;51.442;10.564;2023-04-25T09:56:09;3.90;;;1.98;;
80133;SDS011;69443;51.442;10.564;2023-04-25T09:58:37;3.55;;;1.88;;
80133;SDS011;69443;51.442;10.564;2023-04-25T10:01:05;4.93;;;1.38;;
80133;SDS011;69443;51.442;10.564;2023-04-25T10:03:33;6.53;;;1.65;;
80133;SDS011;69443;51.442;10.564;2023-04-25T10:06:00;5.15;;;1.52;;
80133;SDS011;69443;51.442;10.564;2023-04-25T10:08:36;5.78;;;1.73;;
80133;SDS011;69443;51.442;10.564;2023-04-25T10:11:07;4.75;;;1.70;;
80133;SDS011;69443;51.442;10.564;2023-04-25T10:13:33;8.50;;;1.70;;
80133;SDS011;69443;51.442;10.564;2023-04-25T10:16:03;4.82;;;1.83;;
80133;SDS011;69443;51.442;10.564;2023-04-25T10:18:30;2.38;;;1.08;;
80133;SDS011;69443;51.442;10.564;2023-04-25T10:21:00;3.33;;;1.60;;
80133;SDS011;69443;51.442;10.564;2023-04-25T10:23:30;1.77;;;1.00;;
80133;SDS011;69443;51.442;10.564;2023-04-25T10:25:56;3.63;;;1.27;;
80133;SDS011;69443;51.442;10.564;2023-04-25T10:28:22;2.75;;;1.30;;
80133;SDS011;69443;51.442;10.564;2023-04-25T10:31:03;3.47;;;1.05;;
80133;SDS011;69443;51.442;10.564;2023-04-25T10:33:36;5.18;;;1.83;;
80133;SDS011;69443;51.442;10.564;2023-04-25T10:36:13;6.05;;;1.38;;
80133;SDS011;69443;51.442;10.564;2023-04-25T10:38:49;3.63;;;1.63;;
80133;SDS011;69443;51.442;10.564;2023-04-25T10:41:19;5.35;;;1.25;;
80133;SDS011;69443;51.442;10.564;2023-04-25T10:43:46;4.82;;;1.48;;
80133;SDS011;69443;51.442;10.564;2023-04-25T10:48:51;2.95;;;1.20;;
80133;SDS011;69443;51.442;10.564;2023-04-25T10:51:33;3.53;;;1.35;;
80133;SDS011;69443;51.442;10.564;2023-04-25T10:54:00;5.57;;;1.65;;
80133;SDS011;69443;51.442;10.564;2023-04-25T11:01:41;4.13;;;1.73;;
80133;SDS011;69443;51.442;10.564;2023-04-25T11:04:21;4.53;;;1.45;;
80133;SDS011;69443;51.442;10.564;2023-04-25T11:06:58;4.15;;;1.77;;
80133;SDS011;69443;51.442;10.564;2023-04-25T11:09:28;7.13;;;1.67;;
80133;SDS011;69443;51.442;10.564;2023-04-25T11:11:54;3.05;;;1.10;;
80133;SDS011;69443;51.442;10.564;2023-04-25T11:14:20;6.78;;;1.55;;
80133;SDS011;69443;51.442;10.564;2023-04-25T11:16:46;2.08;;;1.05;;
80133;SDS011;69443;51.442;10.564;2023-04-25T11:19:12;2.05;;;1.25;;
80133;SDS011;69443;51.442;10.564;2023-04-25T11:21:37;4.15;;;1.60;;
80133;SDS011;69443;51.442;10.564;2023-04-25T11:24:03;5.32;;;1.27;;
80133;SDS011;69443;51.442;10.564;2023-04-25T11:26:29;3.85;;;1.23;;
80133;SDS011;69443;51.442;10.564;2023-04-25T11:28:58;3.92;;;1.52;;
80133;SDS011;69443;51.442;10.564;2023-04-25T11:31:25;3.97;;;1.75;;
80133;SDS011;69443;51.442;10.564;2023-04-25T11:33:52;1.85;;;1.15;;
80133;SDS011;69443;51.442;10.564;2023-04-25T11:36:18;3.00;;;1.25;;
80133;SDS011;69443;51.442;10.564;2023-04-25T11:38:44;1.30;;;1.00;;
80133;SDS011;69443;51.442;10.564;2023-04-25T11:41:10;4.43;;;1.30;;
80133;SDS011;69443;51.442;10.564;2023-04-25T11:43:36;4.05;;;1.40;;
80133;SDS011;69443;51.442;10.564;2023-04-25T11:46:06;5.95;;;1.40;;
80133;SDS011;69443;51.442;10.564;2023-04-25T11:48:40;5.22;;;1.40;;
80133;SDS011;69443;51.442;10.564;2023-04-25T11:51:06;3.92;;;1.52;;
80133;SDS011;69443;51.442;10.564;2023-04-25T11:53:31;2.60;;;1.67;;
80133;SDS011;69443;51.442;10.564;2023-04-25T11:55:57;5.80;;;1.48;;
80133;SDS011;69443;51.442;10.564;2023-04-25T11:58:22;4.00;;;1.65;;
80133;SDS011;69443;51.442;10.564;2023-04-25T12:00:50;5.03;;;1.90;;
80133;SDS011;69443;51.442;10.564;2023-04-25T12:03:15;4.35;;;1.40;;
80133;SDS011;69443;51.442;10.564;2023-04-25T12:05:42;2.35;;;1.60;;
80133;SDS011;69443;51.442;10.564;2023-04-25T12:08:11;3.50;;;2.00;;
80133;SDS011;69443;51.442;10.564;2023-04-25T12:10:40;2.97;;;1.27;;
80133;SDS011;69443;51.442;10.564;2023-04-25T12:13:26;2.30;;;1.08;;
80133;SDS011;69443;51.442;10.564;2023-04-25T12:15:55;2.75;;;1.38;;
80133;SDS011;69443;51.442;10.564;2023-04-25T12:18:22;2.72;;;1.20;;
80133;SDS011;69443;51.442;10.564;2023-04-25T12:20:49;5.47;;;1.40;;
80133;SDS011;69443;51.442;10.564;2023-04-25T12:23:14;4.82;;;1.35;;
80133;SDS011;69443;51.442;10.564;2023-04-25T12:25:41;5.75;;;2.05;;
80133;SDS011;69443;51.442;10.564;2023-04-25T12:28:17;3.10;;;1.35;;
80133;SDS011;69443;51.442;10.564;2023-04-25T12:31:04;4.15;;;1.13;;
80133;SDS011;69443;51.442;10.564;2023-04-25T12:33:34;2.15;;;1.17;;
80133;SDS011;69443;51.442;10.564;2023-04-25T12:36:01;3.20;;;1.13;;
80133;SDS011;69443;51.442;10.564;2023-04-25T12:38:37;2.90;;;1.17;;
80133;SDS011;69443;51.442;10.564;2023-04-25T12:41:03;4.18;;;1.30;;
80133;SDS011;69443;51.442;10.564;2023-04-25T12:43:29;3.55;;;1.40;;
80133;SDS011;69443;51.442;10.564;2023-04-25T12:45:55;3.10;;;1.27;;
80133;SDS011;69443;51.442;10.564;2023-04-25T12:48:22;3.90;;;1.05;;
80133;SDS011;69443;51.442;10.564;2023-04-25T12:50:50;3.47;;;1.30;;
80133;SDS011;69443;51.442;10.564;2023-04-25T12:53:17;2.90;;;1.40;;
80133;SDS011;69443;51.442;10.564;2023-04-25T12:55:47;2.50;;;1.20;;
80133;SDS011;69443;51.442;10.564;2023-04-25T12:58:13;4.90;;;1.77;;
80133;SDS011;69443;51.442;10.564;2023-04-25T13:00:39;3.25;;;1.73;;
80133;SDS011;69443;51.442;10.564;2023-04-25T13:03:04;4.25;;;1.20;;
80133;SDS011;69443;51.442;10.564;2023-04-25T13:05:30;3.67;;;1.42;;
80133;SDS011;69443;51.442;10.564;2023-04-25T13:07:56;5.60;;;2.63;;
80133;SDS011;69443;51.442;10.564;2023-04-25T13:10:21;3.35;;;1.40;;
80133;SDS011;69443;51.442;10.564;2023-04-25T13:12:47;3.38;;;1.38;;
80133;SDS011;69443;51.442;10.564;2023-04-25T13:15:12;1.92;;;1.60;;
80133;SDS011;69443;51.442;10.564;2023-04-25T13:17:38;2.88;;;1.30;;
80133;SDS011;69443;51.442;10.564;2023-04-25T13:20:06;5.07;;;1.58;;
80133;SDS011;69443;51.442;10.564;2023-04-25T13:22:34;6.22;;;1.40;;
80133;SDS011;69443;51.442;10.564;2023-04-25T13:25:04;1.67;;;1.10;;
80133;SDS011;69443;51.442;10.564;2023-04-25T13:27:31;4.38;;;1.75;;
80133;SDS011;69443;51.442;10.564;2023-04-25T13:30:00;2.08;;;1.10;;
80133;SDS011;69443;51.442;10.564;2023-04-25T13:32:32;3.42;;;1.25;;
80133;SDS011;69443;51.442;10.564;2023-04-25T13:34:59;5.13;;;1.67;;
80133;SDS011;69443;51.442;10.564;2023-04-25T13:37:24;3.83;;;1.33;;
80133;SDS011;69443;51.442;10.564;2023-04-25T13:39:50;3.35;;;1.42;;
80133;SDS011;69443;51.442;10.564;2023-04-25T13:42:15;3.03;;;1.40;;
80133;SDS011;69443;51.442;10.564;2023-04-25T13:44:41;4.80;;;1.25;;
80133;SDS011;69443;51.442;10.564;2023-04-25T13:47:06;6.85;;;1.67;;
80133;SDS011;69443;51.442;10.564;2023-04-25T13:49:33;4.53;;;1.30;;
80133;SDS011;69443;51.442;10.564;2023-04-25T13:51:58;3.70;;;1.35;;
80133;SDS011;69443;51.442;10.564;2023-04-25T13:54:23;2.97;;;1.25;;
80133;SDS011;69443;51.442;10.564;2023-04-25T13:56:49;3.38;;;1.40;;
80133;SDS011;69443;51.442;10.564;2023-04-25T13:59:15;2.85;;;0.98;;
80133;SDS011;69443;51.442;10.564;2023-04-25T14:01:41;2.65;;;1.05;;
80133;SDS011;69443;51.442;10.564;2023-04-25T14:04:06;4.13;;;1.52;;
80133;SDS011;69443;51.442;10.564;2023-04-25T14:06:32;3.13;;;1.80;;
80133;SDS011;69443;51.442;10.564;2023-04-25T14:08:57;2.72;;;1.33;;
80133;SDS011;69443;51.442;10.564;2023-04-25T14:11:25;3.60;;;1.33;;
80133;SDS011;69443;51.442;10.564;2023-04-25T14:13:50;3.47;;;1.70;;
80133;SDS011;69443;51.442;10.564;2023-04-25T14:16:16;2.10;;;1.30;;
80133;SDS011;69443;51.442;10.564;2023-04-25T14:18:41;3.10;;;1.10;;
80133;SDS011;69443;51.442;10.564;2023-04-25T14:21:07;2.38;;;0.90;;
80133;SDS011;69443;51.442;10.564;2023-04-25T14:23:32;4.85;;;1.35;;
80133;SDS011;69443;51.442;10.564;2023-04-25T14:25:58;3.55;;;1.27;;
80133;SDS011;69443;51.442;10.564;2023-04-25T14:28:23;0.98;;;0.90;;
80133;SDS011;69443;51.442;10.564;2023-04-25T14:30:48;3.28;;;1.40;;
80133;SDS011;69443;51.442;10.564;2023-04-25T14:33:14;3.53;;;1.20;;
80133;SDS011;69443;51.442;10.564;2023-04-25T14:35:39;1.25;;;0.93;;
80133;SDS011;69443;51.442;10.564;2023-04-25T14:38:05;5.28;;;1.75;;